Monkey Run, Arkansas
Current Conditions -  °F | °C
As of 4:53 AM on Friday 31 Oct 2014 (Local Time) from KBPK Reporting Station
Clear Clear  
Wind Chill: 47°   Ceiling: Unl
Heat Index: 49°   Visibility: 10mi
Dew Point: 41°   Wind: 5mph
Humidity: 74%   Direction: 330°NNW
Pressure: 30.1"   Gusts: NA
Location:  36.3299°N, 92.4805°W
Report Text: KBPK 310953Z AUTO 33004KT 10SM CLR 09/05 A3010 RMK AO2 SLP190 T00940050 $
Loading
Personal Weather Stations






























Interactive Weather Map
Tropical Storm Tracking
New forecast layout! Learn more

10-Day Weather Forecast

Advertisements
Track Severe Weather on mobile